sensor_id;sensor_type;location;lat;lon;timestamp;P1;durP1;ratioP1;P2;durP2;ratioP2
81815;SDS011;71249;52.084;5.304;2023-12-29T00:02:03;11.6;;;3.3;;
81815;SDS011;71249;52.084;5.304;2023-12-29T00:03:40;10.3;;;3.3;;
81815;SDS011;71249;52.084;5.304;2023-12-29T00:05:16;13.4;;;3.2;;
81815;SDS011;71249;52.084;5.304;2023-12-29T00:06:52;12.2;;;3.1;;
81815;SDS011;71249;52.084;5.304;2023-12-29T00:10:05;12.9;;;2.8;;
81815;SDS011;71249;52.084;5.304;2023-12-29T00:11:41;13.1;;;3.5;;
81815;SDS011;71249;52.084;5.304;2023-12-29T00:13:17;13.2;;;3.3;;
81815;SDS011;71249;52.084;5.304;2023-12-29T00:16:29;10.7;;;2.9;;
81815;SDS011;71249;52.084;5.304;2023-12-29T00:18:06;9.9;;;3.3;;
81815;SDS011;71249;52.084;5.304;2023-12-29T00:19:42;14.1;;;3.8;;
81815;SDS011;71249;52.084;5.304;2023-12-29T00:22:54;18.0;;;3.6;;
81815;SDS011;71249;52.084;5.304;2023-12-29T00:24:30;18.8;;;3.8;;
81815;SDS011;71249;52.084;5.304;2023-12-29T00:26:06;16.7;;;3.8;;
81815;SDS011;71249;52.084;5.304;2023-12-29T00:29:18;16.2;;;3.4;;
81815;SDS011;71249;52.084;5.304;2023-12-29T00:30:54;11.8;;;3.4;;
81815;SDS011;71249;52.084;5.304;2023-12-29T00:32:30;15.7;;;3.7;;
81815;SDS011;71249;52.084;5.304;2023-12-29T00:34:07;13.8;;;3.0;;
81815;SDS011;71249;52.084;5.304;2023-12-29T00:37:19;12.4;;;3.5;;
81815;SDS011;71249;52.084;5.304;2023-12-29T00:38:55;14.7;;;3.8;;
81815;SDS011;71249;52.084;5.304;2023-12-29T00:40:31;13.2;;;3.0;;
81815;SDS011;71249;52.084;5.304;2023-12-29T00:43:43;11.6;;;3.4;;
81815;SDS011;71249;52.084;5.304;2023-12-29T00:45:19;15.0;;;3.1;;
81815;SDS011;71249;52.084;5.304;2023-12-29T00:46:55;12.1;;;3.4;;
81815;SDS011;71249;52.084;5.304;2023-12-29T00:50:08;11.3;;;2.8;;
81815;SDS011;71249;52.084;5.304;2023-12-29T00:51:46;13.4;;;3.4;;
81815;SDS011;71249;52.084;5.304;2023-12-29T00:53:23;11.7;;;2.9;;
81815;SDS011;71249;52.084;5.304;2023-12-29T00:54:59;14.0;;;3.3;;
81815;SDS011;71249;52.084;5.304;2023-12-29T00:58:11;12.8;;;3.3;;
81815;SDS011;71249;52.084;5.304;2023-12-29T00:59:47;12.8;;;3.4;;
81815;SDS011;71249;52.084;5.304;2023-12-29T01:01:23;12.8;;;3.4;;
81815;SDS011;71249;52.084;5.304;2023-12-29T01:04:36;13.3;;;3.5;;
81815;SDS011;71249;52.084;5.304;2023-12-29T01:06:14;14.3;;;3.4;;
81815;SDS011;71249;52.084;5.304;2023-12-29T01:07:50;13.3;;;3.3;;
81815;SDS011;71249;52.084;5.304;2023-12-29T01:11:02;10.21;;;3.4;;
81815;SDS011;71249;52.084;5.304;2023-12-29T01:12:39;12.7;;;3.3;;
81815;SDS011;71249;52.084;5.304;2023-12-29T01:14:15;14.9;;;3.5;;
81815;SDS011;71249;52.084;5.304;2023-12-29T01:17:27;14.3;;;3.2;;
81815;SDS011;71249;52.084;5.304;2023-12-29T01:19:03;13.9;;;3.4;;
81815;SDS011;71249;52.084;5.304;2023-12-29T01:20:40;14.6;;;3.1;;
81815;SDS011;71249;52.084;5.304;2023-12-29T01:22:16;14.5;;;3.4;;
81815;SDS011;71249;52.084;5.304;2023-12-29T01:25:28;12.0;;;3.4;;
81815;SDS011;71249;52.084;5.304;2023-12-29T01:27:04;10.6;;;3.0;;
81815;SDS011;71249;52.084;5.304;2023-12-29T01:28:40;14.3;;;4.0;;
81815;SDS011;71249;52.084;5.304;2023-12-29T01:31:52;10.7;;;2.9;;
81815;SDS011;71249;52.084;5.304;2023-12-29T01:33:28;14.1;;;3.1;;
81815;SDS011;71249;52.084;5.304;2023-12-29T01:35:05;11.0;;;3.2;;
81815;SDS011;71249;52.084;5.304;2023-12-29T01:38:18;13.7;;;4.1;;
81815;SDS011;71249;52.084;5.304;2023-12-29T01:39:54;16.4;;;5.4;;
81815;SDS011;71249;52.084;5.304;2023-12-29T01:41:30;13.2;;;3.3;;
81815;SDS011;71249;52.084;5.304;2023-12-29T01:43:06;13.0;;;3.7;;
81815;SDS011;71249;52.084;5.304;2023-12-29T01:46:18;10.6;;;3.5;;
81815;SDS011;71249;52.084;5.304;2023-12-29T01:47:54;9.6;;;2.8;;
81815;SDS011;71249;52.084;5.304;2023-12-29T01:49:31;12.9;;;3.8;;
81815;SDS011;71249;52.084;5.304;2023-12-29T01:52:46;12.8;;;3.8;;
81815;SDS011;71249;52.084;5.304;2023-12-29T01:54:25;12.9;;;4.61;;
81815;SDS011;71249;52.084;5.304;2023-12-29T01:56:06;15.0;;;5.0;;
81815;SDS011;71249;52.084;5.304;2023-12-29T01:59:19;15.1;;;4.91;;
81815;SDS011;71249;52.084;5.304;2023-12-29T02:00:55;11.4;;;3.6;;
81815;SDS011;71249;52.084;5.304;2023-12-29T02:04:47;10.21;;;2.8;;
81815;SDS011;71249;52.084;5.304;2023-12-29T02:06:23;10.0;;;2.5;;
81815;SDS011;71249;52.084;5.304;2023-12-29T02:09:38;9.31;;;2.8;;
81815;SDS011;71249;52.084;5.304;2023-12-29T02:11:15;11.5;;;3.2;;
81815;SDS011;71249;52.084;5.304;2023-12-29T02:12:53;10.7;;;2.6;;
81815;SDS011;71249;52.084;5.304;2023-12-29T02:14:29;13.2;;;3.3;;
81815;SDS011;71249;52.084;5.304;2023-12-29T02:17:48;15.1;;;3.1;;
81815;SDS011;71249;52.084;5.304;2023-12-29T02:19:37;13.7;;;3.4;;
81815;SDS011;71249;52.084;5.304;2023-12-29T02:21:13;9.9;;;2.9;;
81815;SDS011;71249;52.084;5.304;2023-12-29T02:22:49;12.2;;;3.0;;
81815;SDS011;71249;52.084;5.304;2023-12-29T02:26:02;12.6;;;2.9;;
81815;SDS011;71249;52.084;5.304;2023-12-29T02:27:46;10.0;;;2.8;;
81815;SDS011;71249;52.084;5.304;2023-12-29T02:29:28;11.7;;;2.9;;
81815;SDS011;71249;52.084;5.304;2023-12-29T02:32:54;13.2;;;2.9;;
81815;SDS011;71249;52.084;5.304;2023-12-29T02:34:34;9.5;;;3.0;;
81815;SDS011;71249;52.084;5.304;2023-12-29T02:36:13;10.1;;;2.7;;
81815;SDS011;71249;52.084;5.304;2023-12-29T02:37:53;11.2;;;2.8;;
81815;SDS011;71249;52.084;5.304;2023-12-29T02:41:06;10.0;;;2.9;;
81815;SDS011;71249;52.084;5.304;2023-12-29T02:42:44;14.6;;;3.3;;
81815;SDS011;71249;52.084;5.304;2023-12-29T02:44:21;13.4;;;3.4;;
81815;SDS011;71249;52.084;5.304;2023-12-29T02:45:57;13.6;;;3.7;;
81815;SDS011;71249;52.084;5.304;2023-12-29T02:49:09;9.5;;;3.0;;
81815;SDS011;71249;52.084;5.304;2023-12-29T02:50:45;12.7;;;3.4;;
81815;SDS011;71249;52.084;5.304;2023-12-29T02:52:21;12.1;;;3.2;;
81815;SDS011;71249;52.084;5.304;2023-12-29T02:55:34;14.3;;;3.6;;
81815;SDS011;71249;52.084;5.304;2023-12-29T02:57:09;12.6;;;3.8;;
81815;SDS011;71249;52.084;5.304;2023-12-29T02:58:46;15.9;;;4.0;;
81815;SDS011;71249;52.084;5.304;2023-12-29T03:01:58;17.7;;;4.1;;
81815;SDS011;71249;52.084;5.304;2023-12-29T03:03:34;15.0;;;3.8;;
81815;SDS011;71249;52.084;5.304;2023-12-29T03:05:10;17.11;;;4.2;;
81815;SDS011;71249;52.084;5.304;2023-12-29T03:06:46;16.61;;;4.1;;
81815;SDS011;71249;52.084;5.304;2023-12-29T03:09:59;13.2;;;3.8;;
81815;SDS011;71249;52.084;5.304;2023-12-29T03:11:35;15.2;;;4.0;;
81815;SDS011;71249;52.084;5.304;2023-12-29T03:13:12;17.2;;;4.3;;
81815;SDS011;71249;52.084;5.304;2023-12-29T03:16:24;18.7;;;4.61;;
81815;SDS011;71249;52.084;5.304;2023-12-29T03:18:00;16.11;;;4.5;;
81815;SDS011;71249;52.084;5.304;2023-12-29T03:19:36;20.3;;;4.7;;
81815;SDS011;71249;52.084;5.304;2023-12-29T03:22:53;22.9;;;4.91;;
81815;SDS011;71249;52.084;5.304;2023-12-29T03:24:29;17.11;;;4.3;;
81815;SDS011;71249;52.084;5.304;2023-12-29T03:26:05;18.41;;;4.41;;
81815;SDS011;71249;52.084;5.304;2023-12-29T03:27:41;19.11;;;4.2;;
81815;SDS011;71249;52.084;5.304;2023-12-29T03:30:54;21.1;;;4.3;;
81815;SDS011;71249;52.084;5.304;2023-12-29T03:32:30;18.11;;;4.2;;
81815;SDS011;71249;52.084;5.304;2023-12-29T03:34:06;21.0;;;4.8;;
81815;SDS011;71249;52.084;5.304;2023-12-29T03:37:18;16.61;;;3.6;;
81815;SDS011;71249;52.084;5.304;2023-12-29T03:38:54;18.61;;;4.0;;
81815;SDS011;71249;52.084;5.304;2023-12-29T03:40:30;17.2;;;4.1;;
81815;SDS011;71249;52.084;5.304;2023-12-29T03:43:42;19.2;;;4.1;;
81815;SDS011;71249;52.084;5.304;2023-12-29T03:45:18;17.0;;;4.0;;
81815;SDS011;71249;52.084;5.304;2023-12-29T03:46:55;16.11;;;3.8;;
81815;SDS011;71249;52.084;5.304;2023-12-29T03:50:07;17.11;;;4.7;;
81815;SDS011;71249;52.084;5.304;2023-12-29T03:51:44;25.7;;;4.7;;
81815;SDS011;71249;52.084;5.304;2023-12-29T03:53:20;23.6;;;4.61;;
81815;SDS011;71249;52.084;5.304;2023-12-29T03:54:56;18.11;;;4.1;;
81815;SDS011;71249;52.084;5.304;2023-12-29T03:58:08;19.11;;;3.7;;
81815;SDS011;71249;52.084;5.304;2023-12-29T03:59:44;21.2;;;4.2;;
81815;SDS011;71249;52.084;5.304;2023-12-29T04:01:21;20.11;;;5.0;;
81815;SDS011;71249;52.084;5.304;2023-12-29T04:04:35;18.91;;;4.0;;
81815;SDS011;71249;52.084;5.304;2023-12-29T04:06:16;18.3;;;4.2;;
81815;SDS011;71249;52.084;5.304;2023-12-29T04:07:52;19.2;;;4.1;;
81815;SDS011;71249;52.084;5.304;2023-12-29T04:11:04;17.91;;;4.2;;
81815;SDS011;71249;52.084;5.304;2023-12-29T04:12:41;18.2;;;4.3;;
81815;SDS011;71249;52.084;5.304;2023-12-29T04:14:17;17.0;;;3.7;;
81815;SDS011;71249;52.084;5.304;2023-12-29T04:15:54;17.5;;;3.7;;
81815;SDS011;71249;52.084;5.304;2023-12-29T04:19:06;19.5;;;4.5;;
81815;SDS011;71249;52.084;5.304;2023-12-29T04:20:42;18.7;;;4.41;;
81815;SDS011;71249;52.084;5.304;2023-12-29T04:22:18;19.3;;;4.0;;
81815;SDS011;71249;52.084;5.304;2023-12-29T04:25:30;20.6;;;4.7;;
81815;SDS011;71249;52.084;5.304;2023-12-29T04:27:06;18.91;;;5.0;;
81815;SDS011;71249;52.084;5.304;2023-12-29T04:28:42;19.7;;;4.3;;
81815;SDS011;71249;52.084;5.304;2023-12-29T04:31:55;22.2;;;4.3;;
81815;SDS011;71249;52.084;5.304;2023-12-29T04:33:31;21.4;;;4.91;;
81815;SDS011;71249;52.084;5.304;2023-12-29T04:35:07;16.3;;;4.2;;
81815;SDS011;71249;52.084;5.304;2023-12-29T04:36:43;20.3;;;5.2;;
81815;SDS011;71249;52.084;5.304;2023-12-29T04:39:55;23.1;;;4.8;;
81815;SDS011;71249;52.084;5.304;2023-12-29T04:41:31;20.3;;;5.0;;
81815;SDS011;71249;52.084;5.304;2023-12-29T04:43:07;22.0;;;5.2;;
81815;SDS011;71249;52.084;5.304;2023-12-29T04:46:20;18.2;;;4.61;;
81815;SDS011;71249;52.084;5.304;2023-12-29T04:47:55;25.4;;;4.91;;
81815;SDS011;71249;52.084;5.304;2023-12-29T04:49:32;20.5;;;5.11;;
81815;SDS011;71249;52.084;5.304;2023-12-29T04:52:47;23.6;;;4.61;;
81815;SDS011;71249;52.084;5.304;2023-12-29T04:54:24;20.7;;;4.61;;
81815;SDS011;71249;52.084;5.304;2023-12-29T04:56:00;21.8;;;5.2;;
81815;SDS011;71249;52.084;5.304;2023-12-29T04:59:12;20.0;;;5.3;;
81815;SDS011;71249;52.084;5.304;2023-12-29T05:00:48;25.8;;;5.2;;
81815;SDS011;71249;52.084;5.304;2023-12-29T05:02:24;23.5;;;5.5;;
81815;SDS011;71249;52.084;5.304;2023-12-29T05:04:01;20.6;;;5.3;;
81815;SDS011;71249;52.084;5.304;2023-12-29T05:07:13;21.1;;;5.0;;
81815;SDS011;71249;52.084;5.304;2023-12-29T05:08:49;28.0;;;5.3;;
81815;SDS011;71249;52.084;5.304;2023-12-29T05:10:25;20.0;;;4.8;;
81815;SDS011;71249;52.084;5.304;2023-12-29T05:13:37;18.5;;;4.3;;
81815;SDS011;71249;52.084;5.304;2023-12-29T05:15:13;25.0;;;5.2;;
81815;SDS011;71249;52.084;5.304;2023-12-29T05:16:50;22.2;;;4.8;;
81815;SDS011;71249;52.084;5.304;2023-12-29T05:20:02;17.7;;;4.41;;
81815;SDS011;71249;52.084;5.304;2023-12-29T05:21:38;21.5;;;5.5;;
81815;SDS011;71249;52.084;5.304;2023-12-29T05:23:14;20.5;;;5.0;;
81815;SDS011;71249;52.084;5.304;2023-12-29T05:24:50;23.5;;;5.5;;
81815;SDS011;71249;52.084;5.304;2023-12-29T05:28:02;19.0;;;4.7;;
81815;SDS011;71249;52.084;5.304;2023-12-29T05:29:38;25.4;;;5.5;;
81815;SDS011;71249;52.084;5.304;2023-12-29T05:31:15;22.5;;;4.41;;
81815;SDS011;71249;52.084;5.304;2023-12-29T05:34:27;21.7;;;4.8;;
81815;SDS011;71249;52.084;5.304;2023-12-29T05:36:06;20.6;;;4.7;;
81815;SDS011;71249;52.084;5.304;2023-12-29T05:37:44;20.3;;;4.61;;
81815;SDS011;71249;52.084;5.304;2023-12-29T05:40:56;22.1;;;4.8;;
81815;SDS011;71249;52.084;5.304;2023-12-29T05:42:32;22.0;;;5.3;;
81815;SDS011;71249;52.084;5.304;2023-12-29T05:44:08;22.3;;;5.4;;
81815;SDS011;71249;52.084;5.304;2023-12-29T05:45:44;23.1;;;4.61;;
81815;SDS011;71249;52.084;5.304;2023-12-29T05:48:57;18.61;;;4.61;;
81815;SDS011;71249;52.084;5.304;2023-12-29T05:50:33;23.0;;;5.4;;
81815;SDS011;71249;52.084;5.304;2023-12-29T05:52:09;21.5;;;5.11;;
81815;SDS011;71249;52.084;5.304;2023-12-29T05:55:21;18.91;;;4.0;;
81815;SDS011;71249;52.084;5.304;2023-12-29T05:56:57;19.41;;;4.3;;
81815;SDS011;71249;52.084;5.304;2023-12-29T05:58:34;21.4;;;4.61;;
81815;SDS011;71249;52.084;5.304;2023-12-29T06:01:48;18.3;;;4.7;;
81815;SDS011;71249;52.084;5.304;2023-12-29T06:03:25;22.8;;;5.3;;
81815;SDS011;71249;52.084;5.304;2023-12-29T06:05:01;19.7;;;5.2;;
81815;SDS011;71249;52.084;5.304;2023-12-29T06:08:13;19.61;;;4.3;;
81815;SDS011;71249;52.084;5.304;2023-12-29T06:09:52;22.0;;;5.6;;
81815;SDS011;71249;52.084;5.304;2023-12-29T06:11:28;18.91;;;4.3;;
81815;SDS011;71249;52.084;5.304;2023-12-29T06:13:04;19.5;;;4.1;;
81815;SDS011;71249;52.084;5.304;2023-12-29T06:16:17;20.2;;;4.61;;
81815;SDS011;71249;52.084;5.304;2023-12-29T06:17:54;20.0;;;4.7;;
81815;SDS011;71249;52.084;5.304;2023-12-29T06:19:30;21.4;;;4.7;;
81815;SDS011;71249;52.084;5.304;2023-12-29T06:22:42;20.8;;;4.5;;
81815;SDS011;71249;52.084;5.304;2023-12-29T06:24:18;20.2;;;4.41;;
81815;SDS011;71249;52.084;5.304;2023-12-29T06:25:54;22.0;;;5.11;;
81815;SDS011;71249;52.084;5.304;2023-12-29T06:29:07;22.3;;;4.8;;
81815;SDS011;71249;52.084;5.304;2023-12-29T06:30:42;19.11;;;4.0;;
81815;SDS011;71249;52.084;5.304;2023-12-29T06:32:19;17.41;;;4.1;;
81815;SDS011;71249;52.084;5.304;2023-12-29T06:33:55;16.8;;;4.3;;
81815;SDS011;71249;52.084;5.304;2023-12-29T06:37:08;22.7;;;4.61;;
81815;SDS011;71249;52.084;5.304;2023-12-29T06:38:44;15.9;;;4.2;;
81815;SDS011;71249;52.084;5.304;2023-12-29T06:40:20;17.5;;;4.5;;
81815;SDS011;71249;52.084;5.304;2023-12-29T06:43:32;15.4;;;3.8;;
81815;SDS011;71249;52.084;5.304;2023-12-29T06:45:09;16.0;;;3.6;;
81815;SDS011;71249;52.084;5.304;2023-12-29T06:46:45;17.2;;;3.8;;
81815;SDS011;71249;52.084;5.304;2023-12-29T06:49:57;17.2;;;3.8;;
81815;SDS011;71249;52.084;5.304;2023-12-29T06:51:33;15.9;;;3.9;;
81815;SDS011;71249;52.084;5.304;2023-12-29T06:53:09;14.1;;;4.1;;
81815;SDS011;71249;52.084;5.304;2023-12-29T06:56:24;17.11;;;4.3;;
81815;SDS011;71249;52.084;5.304;2023-12-29T06:58:00;16.5;;;4.3;;
81815;SDS011;71249;52.084;5.304;2023-12-29T06:59:36;15.6;;;3.5;;
81815;SDS011;71249;52.084;5.304;2023-12-29T07:01:13;18.11;;;4.41;;
81815;SDS011;71249;52.084;5.304;2023-12-29T07:04:25;12.4;;;3.4;;
81815;SDS011;71249;52.084;5.304;2023-12-29T07:07:40;11.9;;;2.8;;
81815;SDS011;71249;52.084;5.304;2023-12-29T07:10:52;12.3;;;3.4;;
81815;SDS011;71249;52.084;5.304;2023-12-29T07:12:28;9.0;;;2.6;;
81815;SDS011;71249;52.084;5.304;2023-12-29T07:14:04;11.2;;;2.8;;
81815;SDS011;71249;52.084;5.304;2023-12-29T07:17:16;11.2;;;2.8;;
81815;SDS011;71249;52.084;5.304;2023-12-29T07:18:53;7.8;;;2.4;;
81815;SDS011;71249;52.084;5.304;2023-12-29T07:20:29;10.1;;;2.7;;
81815;SDS011;71249;52.084;5.304;2023-12-29T07:22:05;8.4;;;2.7;;
81815;SDS011;71249;52.084;5.304;2023-12-29T07:25:17;10.9;;;3.0;;
81815;SDS011;71249;52.084;5.304;2023-12-29T07:26:53;10.4;;;2.9;;
81815;SDS011;71249;52.084;5.304;2023-12-29T07:28:29;12.6;;;2.9;;
81815;SDS011;71249;52.084;5.304;2023-12-29T07:31:43;9.1;;;2.4;;
81815;SDS011;71249;52.084;5.304;2023-12-29T07:33:19;8.2;;;2.4;;
81815;SDS011;71249;52.084;5.304;2023-12-29T07:34:56;9.9;;;2.7;;
81815;SDS011;71249;52.084;5.304;2023-12-29T07:38:08;10.1;;;2.0;;
81815;SDS011;71249;52.084;5.304;2023-12-29T07:39:44;9.21;;;2.7;;
81815;SDS011;71249;52.084;5.304;2023-12-29T07:41:20;10.21;;;2.4;;
81815;SDS011;71249;52.084;5.304;2023-12-29T07:42:56;8.81;;;2.1;;
81815;SDS011;71249;52.084;5.304;2023-12-29T07:46:08;9.6;;;2.9;;
81815;SDS011;71249;52.084;5.304;2023-12-29T07:47:44;10.7;;;2.7;;
81815;SDS011;71249;52.084;5.304;2023-12-29T07:49:21;10.1;;;3.0;;
81815;SDS011;71249;52.084;5.304;2023-12-29T07:52:42;10.5;;;2.9;;
81815;SDS011;71249;52.084;5.304;2023-12-29T07:54:18;11.7;;;2.8;;
81815;SDS011;71249;52.084;5.304;2023-12-29T07:55:54;11.0;;;3.0;;
81815;SDS011;71249;52.084;5.304;2023-12-29T07:59:06;10.0;;;3.0;;
81815;SDS011;71249;52.084;5.304;2023-12-29T08:00:42;14.1;;;3.3;;
81815;SDS011;71249;52.084;5.304;2023-12-29T08:02:21;14.6;;;3.5;;
81815;SDS011;71249;52.084;5.304;2023-12-29T08:03:57;10.6;;;2.9;;
81815;SDS011;71249;52.084;5.304;2023-12-29T08:07:10;12.3;;;3.2;;
81815;SDS011;71249;52.084;5.304;2023-12-29T08:08:46;10.1;;;2.9;;
81815;SDS011;71249;52.084;5.304;2023-12-29T08:10:22;9.6;;;3.0;;
81815;SDS011;71249;52.084;5.304;2023-12-29T08:13:34;9.4;;;2.6;;
81815;SDS011;71249;52.084;5.304;2023-12-29T08:15:10;10.8;;;3.2;;
81815;SDS011;71249;52.084;5.304;2023-12-29T08:16:46;10.3;;;2.8;;
81815;SDS011;71249;52.084;5.304;2023-12-29T08:19:58;8.81;;;2.6;;
81815;SDS011;71249;52.084;5.304;2023-12-29T08:21:34;8.1;;;2.5;;
81815;SDS011;71249;52.084;5.304;2023-12-29T08:23:11;7.7;;;2.4;;
81815;SDS011;71249;52.084;5.304;2023-12-29T08:24:47;8.6;;;2.8;;
81815;SDS011;71249;52.084;5.304;2023-12-29T08:27:59;7.1;;;2.6;;
81815;SDS011;71249;52.084;5.304;2023-12-29T08:29:35;6.9;;;2.6;;
81815;SDS011;71249;52.084;5.304;2023-12-29T08:31:11;8.81;;;2.31;;
81815;SDS011;71249;52.084;5.304;2023-12-29T08:34:24;9.21;;;2.9;;
81815;SDS011;71249;52.084;5.304;2023-12-29T08:36:01;8.1;;;2.7;;
81815;SDS011;71249;52.084;5.304;2023-12-29T08:37:38;7.1;;;2.31;;
81815;SDS011;71249;52.084;5.304;2023-12-29T08:40:51;8.4;;;2.7;;
81815;SDS011;71249;52.084;5.304;2023-12-29T08:42:27;6.6;;;2.6;;
81815;SDS011;71249;52.084;5.304;2023-12-29T08:44:03;7.1;;;2.5;;
81815;SDS011;71249;52.084;5.304;2023-12-29T08:45:39;8.4;;;2.4;;
81815;SDS011;71249;52.084;5.304;2023-12-29T08:48:51;9.0;;;2.7;;
81815;SDS011;71249;52.084;5.304;2023-12-29T08:50:27;6.1;;;2.21;;
81815;SDS011;71249;52.084;5.304;2023-12-29T08:52:04;7.6;;;2.21;;
81815;SDS011;71249;52.084;5.304;2023-12-29T08:55:16;10.9;;;2.8;;
81815;SDS011;71249;52.084;5.304;2023-12-29T08:56:52;9.21;;;2.8;;
81815;SDS011;71249;52.084;5.304;2023-12-29T08:58:28;8.71;;;2.5;;
81815;SDS011;71249;52.084;5.304;2023-12-29T09:01:42;10.7;;;2.8;;
81815;SDS011;71249;52.084;5.304;2023-12-29T09:03:18;9.9;;;2.7;;
81815;SDS011;71249;52.084;5.304;2023-12-29T09:04:54;7.7;;;2.6;;
81815;SDS011;71249;52.084;5.304;2023-12-29T09:08:06;8.31;;;2.5;;
81815;SDS011;71249;52.084;5.304;2023-12-29T09:09:46;9.0;;;2.9;;
81815;SDS011;71249;52.084;5.304;2023-12-29T09:11:22;7.3;;;2.5;;
81815;SDS011;71249;52.084;5.304;2023-12-29T09:12:58;6.4;;;2.0;;
81815;SDS011;71249;52.084;5.304;2023-12-29T09:16:10;6.1;;;2.0;;
81815;SDS011;71249;52.084;5.304;2023-12-29T09:17:47;9.31;;;2.4;;
81815;SDS011;71249;52.084;5.304;2023-12-29T09:19:23;7.8;;;2.6;;
81815;SDS011;71249;52.084;5.304;2023-12-29T09:22:35;9.31;;;2.8;;
81815;SDS011;71249;52.084;5.304;2023-12-29T09:24:12;8.81;;;2.6;;
81815;SDS011;71249;52.084;5.304;2023-12-29T09:25:48;8.71;;;2.31;;
81815;SDS011;71249;52.084;5.304;2023-12-29T09:29:00;8.4;;;2.4;;
81815;SDS011;71249;52.084;5.304;2023-12-29T09:30:37;8.31;;;2.21;;
81815;SDS011;71249;52.084;5.304;2023-12-29T09:32:13;8.0;;;2.21;;
81815;SDS011;71249;52.084;5.304;2023-12-29T09:33:49;9.31;;;2.5;;
81815;SDS011;71249;52.084;5.304;2023-12-29T09:37:01;10.3;;;2.4;;
81815;SDS011;71249;52.084;5.304;2023-12-29T09:38:38;8.4;;;2.8;;
81815;SDS011;71249;52.084;5.304;2023-12-29T09:40:14;9.9;;;2.8;;
81815;SDS011;71249;52.084;5.304;2023-12-29T09:43:31;9.1;;;2.4;;
81815;SDS011;71249;52.084;5.304;2023-12-29T09:45:07;8.9;;;2.0;;
81815;SDS011;71249;52.084;5.304;2023-12-29T09:46:48;7.9;;;2.4;;
81815;SDS011;71249;52.084;5.304;2023-12-29T09:48:26;10.3;;;2.7;;
81815;SDS011;71249;52.084;5.304;2023-12-29T09:51:40;7.5;;;2.31;;
81815;SDS011;71249;52.084;5.304;2023-12-29T09:53:18;9.0;;;2.31;;
81815;SDS011;71249;52.084;5.304;2023-12-29T09:54:56;9.71;;;2.6;;
81815;SDS011;71249;52.084;5.304;2023-12-29T09:58:10;8.71;;;2.4;;
81815;SDS011;71249;52.084;5.304;2023-12-29T09:59:48;7.9;;;2.31;;
81815;SDS011;71249;52.084;5.304;2023-12-29T10:01:25;7.3;;;2.4;;
81815;SDS011;71249;52.084;5.304;2023-12-29T10:04:40;7.6;;;2.31;;
81815;SDS011;71249;52.084;5.304;2023-12-29T10:06:20;7.4;;;2.31;;
81815;SDS011;71249;52.084;5.304;2023-12-29T10:08:01;9.4;;;2.31;;
81815;SDS011;71249;52.084;5.304;2023-12-29T10:09:39;8.31;;;2.21;;
81815;SDS011;71249;52.084;5.304;2023-12-29T10:12:57;8.0;;;2.31;;
81815;SDS011;71249;52.084;5.304;2023-12-29T10:14:36;7.6;;;2.5;;
81815;SDS011;71249;52.084;5.304;2023-12-29T10:16:24;8.2;;;2.7;;
81815;SDS011;71249;52.084;5.304;2023-12-29T10:18:10;6.5;;;2.8;;
81815;SDS011;71249;52.084;5.304;2023-12-29T10:20:08;7.4;;;2.31;;
81815;SDS011;71249;52.084;5.304;2023-12-29T10:22:06;6.0;;;2.5;;
81815;SDS011;71249;52.084;5.304;2023-12-29T10:25:32;7.1;;;3.2;;
81815;SDS011;71249;52.084;5.304;2023-12-29T10:27:09;6.6;;;2.6;;
81815;SDS011;71249;52.084;5.304;2023-12-29T10:28:46;7.0;;;2.31;;
81815;SDS011;71249;52.084;5.304;2023-12-29T10:30:22;6.8;;;2.4;;
81815;SDS011;71249;52.084;5.304;2023-12-29T10:33:34;5.4;;;2.4;;
81815;SDS011;71249;52.084;5.304;2023-12-29T10:35:11;7.5;;;2.6;;
81815;SDS011;71249;52.084;5.304;2023-12-29T10:36:47;6.1;;;2.9;;
81815;SDS011;71249;52.084;5.304;2023-12-29T10:40:00;6.2;;;2.8;;
81815;SDS011;71249;52.084;5.304;2023-12-29T10:41:37;6.0;;;3.1;;
81815;SDS011;71249;52.084;5.304;2023-12-29T10:43:13;5.0;;;2.1;;
81815;SDS011;71249;52.084;5.304;2023-12-29T10:46:41;5.8;;;2.31;;
81815;SDS011;71249;52.084;5.304;2023-12-29T10:48:21;8.2;;;2.0;;
81815;SDS011;71249;52.084;5.304;2023-12-29T10:50:01;8.9;;;2.9;;
81815;SDS011;71249;52.084;5.304;2023-12-29T10:51:38;7.5;;;3.0;;
81815;SDS011;71249;52.084;5.304;2023-12-29T10:53:16;6.8;;;2.5;;
81815;SDS011;71249;52.084;5.304;2023-12-29T10:56:41;8.5;;;2.5;;
81815;SDS011;71249;52.084;5.304;2023-12-29T10:58:17;8.9;;;2.9;;
81815;SDS011;71249;52.084;5.304;2023-12-29T10:59:54;9.31;;;2.4;;
81815;SDS011;71249;52.084;5.304;2023-12-29T11:03:10;11.0;;;2.21;;
81815;SDS011;71249;52.084;5.304;2023-12-29T11:04:50;8.71;;;2.1;;
81815;SDS011;71249;52.084;5.304;2023-12-29T11:06:26;8.2;;;2.31;;
81815;SDS011;71249;52.084;5.304;2023-12-29T11:08:04;9.1;;;2.21;;
81815;SDS011;71249;52.084;5.304;2023-12-29T11:11:26;7.1;;;2.0;;
81815;SDS011;71249;52.084;5.304;2023-12-29T11:13:03;9.31;;;2.4;;
81815;SDS011;71249;52.084;5.304;2023-12-29T11:14:39;7.6;;;2.1;;
81815;SDS011;71249;52.084;5.304;2023-12-29T11:16:17;13.4;;;3.0;;
81815;SDS011;71249;52.084;5.304;2023-12-29T11:19:32;9.0;;;2.6;;
81815;SDS011;71249;52.084;5.304;2023-12-29T11:21:08;11.7;;;2.8;;
81815;SDS011;71249;52.084;5.304;2023-12-29T11:22:46;10.0;;;2.4;;
81815;SDS011;71249;52.084;5.304;2023-12-29T11:25:59;8.6;;;2.31;;
81815;SDS011;71249;52.084;5.304;2023-12-29T11:27:38;8.4;;;2.21;;
81815;SDS011;71249;52.084;5.304;2023-12-29T11:29:15;8.4;;;2.21;;
81815;SDS011;71249;52.084;5.304;2023-12-29T11:32:32;9.4;;;2.1;;
81815;SDS011;71249;52.084;5.304;2023-12-29T11:34:20;9.4;;;2.4;;
81815;SDS011;71249;52.084;5.304;2023-12-29T11:36:06;10.7;;;2.31;;
81815;SDS011;71249;52.084;5.304;2023-12-29T11:37:52;9.71;;;2.31;;
81815;SDS011;71249;52.084;5.304;2023-12-29T11:39:38;12.2;;;2.7;;
81815;SDS011;71249;52.084;5.304;2023-12-29T11:41:25;10.4;;;2.6;;
81815;SDS011;71249;52.084;5.304;2023-12-29T11:44:53;10.5;;;2.5;;
81815;SDS011;71249;52.084;5.304;2023-12-29T11:46:32;8.9;;;2.31;;
81815;SDS011;71249;52.084;5.304;2023-12-29T11:48:10;12.4;;;2.6;;
81815;SDS011;71249;52.084;5.304;2023-12-29T11:49:57;8.9;;;2.4;;
81815;SDS011;71249;52.084;5.304;2023-12-29T11:53:30;12.7;;;2.8;;
81815;SDS011;71249;52.084;5.304;2023-12-29T11:55:08;10.9;;;2.7;;
81815;SDS011;71249;52.084;5.304;2023-12-29T11:56:44;12.1;;;2.7;;
81815;SDS011;71249;52.084;5.304;2023-12-29T11:58:23;13.0;;;2.8;;
81815;SDS011;71249;52.084;5.304;2023-12-29T12:01:36;13.0;;;2.6;;
81815;SDS011;71249;52.084;5.304;2023-12-29T12:03:14;9.6;;;2.5;;
81815;SDS011;71249;52.084;5.304;2023-12-29T12:04:52;14.5;;;3.0;;
81815;SDS011;71249;52.084;5.304;2023-12-29T12:08:26;10.4;;;2.5;;
81815;SDS011;71249;52.084;5.304;2023-12-29T12:10:40;14.0;;;3.1;;
81815;SDS011;71249;52.084;5.304;2023-12-29T12:12:37;14.7;;;3.3;;
81815;SDS011;71249;52.084;5.304;2023-12-29T12:14:42;11.7;;;2.7;;
81815;SDS011;71249;52.084;5.304;2023-12-29T12:16:46;15.6;;;2.9;;
81815;SDS011;71249;52.084;5.304;2023-12-29T12:18:33;11.3;;;2.8;;
81815;SDS011;71249;52.084;5.304;2023-12-29T12:20:10;11.5;;;2.9;;
81815;SDS011;71249;52.084;5.304;2023-12-29T12:21:46;13.9;;;2.9;;
81815;SDS011;71249;52.084;5.304;2023-12-29T12:23:23;13.1;;;3.1;;
81815;SDS011;71249;52.084;5.304;2023-12-29T12:26:38;14.1;;;3.4;;
81815;SDS011;71249;52.084;5.304;2023-12-29T12:28:19;16.61;;;3.4;;
81815;SDS011;71249;52.084;5.304;2023-12-29T12:29:56;16.0;;;3.6;;
81815;SDS011;71249;52.084;5.304;2023-12-29T12:33:09;18.61;;;3.5;;
81815;SDS011;71249;52.084;5.304;2023-12-29T12:34:49;15.4;;;3.5;;
81815;SDS011;71249;52.084;5.304;2023-12-29T12:36:25;13.2;;;3.1;;
81815;SDS011;71249;52.084;5.304;2023-12-29T12:38:06;15.5;;;4.0;;
81815;SDS011;71249;52.084;5.304;2023-12-29T12:41:21;14.0;;;4.61;;
81815;SDS011;71249;52.084;5.304;2023-12-29T12:42:58;19.0;;;4.7;;
81815;SDS011;71249;52.084;5.304;2023-12-29T12:44:34;15.5;;;4.8;;
81815;SDS011;71249;52.084;5.304;2023-12-29T12:46:16;17.0;;;4.91;;
81815;SDS011;71249;52.084;5.304;2023-12-29T12:49:36;14.3;;;4.41;;
81815;SDS011;71249;52.084;5.304;2023-12-29T12:51:15;18.0;;;6.1;;